createdAt,value
2023-05-05T00:09:09.122Z,49.72
2023-05-05T00:19:13.448Z,49.65
2023-05-05T00:29:16.443Z,52.12
2023-05-05T00:39:20.946Z,51.77
2023-05-05T00:49:23.900Z,52.76
2023-05-05T00:59:29.558Z,52.40
2023-05-05T01:09:39.797Z,53.71
2023-05-05T01:20:04.258Z,52.30
2023-05-05T01:30:18.644Z,53.41
2023-05-05T01:40:31.331Z,54.87
2023-05-05T01:50:35.948Z,54.46
2023-05-05T02:00:41.196Z,56.52
2023-05-05T02:10:46.269Z,57.12
2023-05-05T02:20:50.650Z,57.20
2023-05-05T02:30:58.080Z,56.89
2023-05-05T02:41:04.913Z,58.58
2023-05-05T02:51:08.420Z,60.72
2023-05-05T03:01:29.210Z,60.33
2023-05-05T03:11:40.526Z,61.41
2023-05-05T03:21:46.032Z,63.34
2023-05-05T03:31:50.413Z,63.86
2023-05-05T03:41:55.929Z,64.90
2023-05-05T03:52:00.822Z,66.30
2023-05-05T04:02:06.536Z,67.14
2023-05-05T04:12:10.198Z,67.17
2023-05-05T04:22:14.814Z,67.93
2023-05-05T04:32:18.110Z,69.38
2023-05-05T04:42:22.509Z,70.01
2023-05-05T04:52:25.793Z,71.42
2023-05-05T05:02:31.075Z,72.17
2023-05-05T05:12:34.340Z,71.21
2023-05-05T05:22:39.189Z,75.40
2023-05-05T05:32:47.056Z,76.02
2023-05-05T05:42:53.527Z,74.83
2023-05-05T05:52:57.157Z,74.47
2023-05-05T06:03:02.820Z,73.49
2023-05-05T06:13:09.679Z,74.16
2023-05-05T06:23:18.579Z,74.37
2023-05-05T06:33:27.903Z,74.01
2023-05-05T06:43:32.011Z,73.37
2023-05-05T06:53:38.009Z,73.20
2023-05-05T07:03:42.281Z,72.05
2023-05-05T07:13:45.174Z,71.57
2023-05-05T07:23:50.039Z,71.46
2023-05-05T07:33:53.124Z,71.46
2023-05-05T07:43:57.508Z,70.80
2023-05-05T07:54:00.699Z,67.88
2023-05-05T08:04:05.244Z,65.66
2023-05-05T08:14:10.074Z,64.86
2023-05-05T08:24:14.856Z,63.08
2023-05-05T08:34:18.038Z,64.83
2023-05-05T08:44:22.383Z,62.95
2023-05-05T08:54:28.611Z,60.08
2023-05-05T09:05:00.632Z,59.87
2023-05-05T09:15:04.045Z,60.95
2023-05-05T09:25:11.138Z,57.45
2023-05-05T09:35:14.234Z,56.55
2023-05-05T09:45:28.454Z,57.00
2023-05-05T09:55:31.962Z,53.31
2023-05-05T10:05:49.149Z,52.46
2023-05-05T10:15:53.495Z,53.88
2023-05-05T10:26:03.065Z,56.61
2023-05-05T10:36:07.794Z,55.29
2023-05-05T10:46:12.481Z,55.92
2023-05-05T10:56:25.470Z,53.84
2023-05-05T11:06:31.267Z,52.79
2023-05-05T11:16:47.547Z,53.23
2023-05-05T11:26:52.876Z,54.55
2023-05-05T11:37:03.503Z,54.65
2023-05-05T11:47:42.975Z,59.30
2023-05-05T11:57:47.736Z,56.39
2023-05-05T12:07:57.392Z,59.31
2023-05-05T12:18:03.114Z,57.77
2023-05-05T12:28:08.569Z,61.10
2023-05-05T12:38:13.079Z,61.23
2023-05-05T12:48:22.589Z,61.88
2023-05-05T12:58:27.820Z,61.95
2023-05-05T13:19:14.019Z,68.61
2023-05-05T13:29:17.376Z,68.53
2023-05-05T13:39:21.587Z,69.72
2023-05-05T13:49:24.872Z,68.54
2023-05-05T13:59:30.153Z,67.65
2023-05-05T14:09:35.195Z,68.31
2023-05-05T14:19:39.696Z,72.25
2023-05-05T14:29:43.295Z,75.44
2023-05-05T14:39:48.249Z,75.38
2023-05-05T14:49:52.901Z,70.98
2023-05-05T14:59:57.210Z,72.84
